Time;durP1;ratioP1;P1;durP2;ratioP2;P2;SDS_P1;SDS_P2;PMS_P1;PMS_P2;Temp;Humidity;BMP_temperature;BMP_pressure;BME280_temperature;BME280_humidity;BME280_pressure;Samples;Min_cycle;Max_cycle;Signal;HPM_P1;HPM_P2
2022/08/11 00:01:29;;;;;;;1.53;1.53;;;;;;;;;;5007349;28;20217;-57
2022/08/11 00:03:55;;;;;;;1.50;1.50;;;;;;;;;;5009438;28;20224;-58
2022/08/11 00:06:31;;;;;;;1.90;1.80;;;;;;;;;;5007078;28;20244;-58
2022/08/11 00:08:57;;;;;;;1.90;1.80;;;;;;;;;;5011719;28;20338;-58
2022/08/11 00:11:31;;;;;;;1.90;1.80;;;;;;;;;;5004260;28;20701;-58
2022/08/11 00:13:57;;;;;;;1.60;1.60;;;;;;;;;;5008538;28;20231;-58
2022/08/11 00:16:24;;;;;;;1.67;1.67;;;;;;;;;;4979351;28;20232;-57
2022/08/11 00:18:54;;;;;;;2.10;2.00;;;;;;;;;;5008221;28;20470;-58
2022/08/11 00:21:20;;;;;;;2.10;2.00;;;;;;;;;;5008761;28;20828;-57
2022/08/11 00:23:47;;;;;;;1.63;1.63;;;;;;;;;;5005462;28;20220;-58
2022/08/11 00:26:13;;;;;;;1.77;1.70;;;;;;;;;;4992950;28;22120;-57
2022/08/11 00:28:40;;;;;;;2.00;1.90;;;;;;;;;;4999045;28;20579;-57
2022/08/11 00:31:07;;;;;;;1.90;1.80;;;;;;;;;;5010571;28;20240;-59
2022/08/11 00:33:42;;;;;;;2.10;2.00;;;;;;;;;;5011843;28;20281;-58
2022/08/11 00:36:08;;;;;;;1.90;1.80;;;;;;;;;;5005693;28;20219;-57
2022/08/11 00:38:35;;;;;;;1.90;1.80;;;;;;;;;;4999484;28;20333;-57
2022/08/11 00:41:23;;;;;;;2.00;1.90;;;;;;;;;;4996611;28;20642;-57
2022/08/11 00:44:07;;;;;;;2.00;1.90;;;;;;;;;;4992249;28;20219;-59
2022/08/11 00:46:52;;;;;;;2.10;2.00;;;;;;;;;;5009077;28;20705;-59
2022/08/11 00:49:44;;;;;;;1.07;1.07;;;;;;;;;;5003177;28;20237;-58
2022/08/11 00:52:28;;;;;;;1.03;1.03;;;;;;;;;;4979987;28;20232;-58
2022/08/11 00:55:13;;;;;;;1.00;1.00;;;;;;;;;;5002178;28;20282;-58
2022/08/11 00:57:45;;;;;;;0.90;0.90;;;;;;;;;;5011499;28;20223;-57
2022/08/11 01:00:12;;;;;;;0.90;0.90;;;;;;;;;;5005534;28;20252;-57
2022/08/11 01:02:38;;;;;;;0.90;0.90;;;;;;;;;;5013547;28;20226;-57
2022/08/11 01:05:22;;;;;;;0.90;0.90;;;;;;;;;;4998814;28;21801;-57
2022/08/11 01:08:07;;;;;;;0.90;0.90;;;;;;;;;;5007394;28;20760;-57
2022/08/11 01:10:44;;;;;;;2.00;1.90;;;;;;;;;;5008467;28;20239;-59
2022/08/11 01:13:29;;;;;;;1.90;1.80;;;;;;;;;;5003532;28;20988;-59
2022/08/11 01:16:04;;;;;;;2.27;2.17;;;;;;;;;;5015266;28;21463;-57
2022/08/11 01:18:49;;;;;;;2.00;1.90;;;;;;;;;;5013336;28;20227;-58
2022/08/11 01:21:18;;;;;;;2.10;2.00;;;;;;;;;;5010184;28;20228;-57
2022/08/11 01:23:44;;;;;;;2.10;2.00;;;;;;;;;;4985305;28;20267;-57
2022/08/11 01:26:35;;;;;;;2.03;1.93;;;;;;;;;;4999379;28;20243;-59
2022/08/11 01:29:20;;;;;;;1.70;1.70;;;;;;;;;;4987192;28;20240;-58
2022/08/11 01:32:04;;;;;;;1.20;1.20;;;;;;;;;;5010215;28;20688;-58
2022/08/11 01:34:49;;;;;;;1.20;1.20;;;;;;;;;;5010006;28;20220;-58
2022/08/11 01:37:35;;;;;;;1.10;1.10;;;;;;;;;;5002110;28;20271;-56
2022/08/11 01:40:07;;;;;;;1.40;1.40;;;;;;;;;;4979271;28;20702;-57
2022/08/11 01:45:52;;;;;;;2.30;2.20;;;;;;;;;;5000073;28;20866;-57
2022/08/11 01:48:22;;;;;;;1.80;1.70;;;;;;;;;;5017912;28;20254;-57
2022/08/11 01:50:57;;;;;;;1.93;1.83;;;;;;;;;;5022221;28;20709;-58
2022/08/11 01:53:41;;;;;;;1.70;1.70;;;;;;;;;;5021451;28;20224;-58
2022/08/11 01:56:26;;;;;;;1.40;1.40;;;;;;;;;;5014303;28;20233;-57
2022/08/11 01:59:10;;;;;;;1.60;1.60;;;;;;;;;;5014731;28;20303;-58
2022/08/11 02:01:39;;;;;;;1.40;1.40;;;;;;;;;;5006916;28;20236;-58
2022/08/11 02:04:24;;;;;;;1.60;1.60;;;;;;;;;;4999891;28;20235;-59
2022/08/11 02:06:54;;;;;;;1.63;1.63;;;;;;;;;;5003484;28;21397;-57
2022/08/11 02:09:33;;;;;;;1.50;1.50;;;;;;;;;;4988257;28;20233;-58
2022/08/11 02:12:01;;;;;;;1.40;1.40;;;;;;;;;;5001309;28;20248;-57
2022/08/11 02:14:29;;;;;;;1.30;1.30;;;;;;;;;;5003970;28;20689;-57
2022/08/11 02:17:15;;;;;;;1.47;1.47;;;;;;;;;;4999916;28;20223;-58
2022/08/11 02:25:35;;;;;;;1.40;1.40;;;;;;;;;;5030461;28;20251;-59
2022/08/11 02:28:10;;;;;;;1.20;1.20;;;;;;;;;;5017698;28;20307;-58
2022/08/11 02:30:41;;;;;;;1.40;1.40;;;;;;;;;;4999835;28;20687;-59
2022/08/11 02:33:22;;;;;;;1.50;1.50;;;;;;;;;;5010720;28;20224;-57
2022/08/11 02:35:55;;;;;;;1.60;1.60;;;;;;;;;;5000533;28;21504;-59
2022/08/11 02:38:29;;;;;;;1.10;1.10;;;;;;;;;;5001746;28;21477;-58
2022/08/11 02:44:18;;;;;;;1.43;1.43;;;;;;;;;;5007327;28;20246;-58
2022/08/11 02:47:02;;;;;;;1.60;1.60;;;;;;;;;;5000761;28;20323;-58
2022/08/11 02:49:53;;;;;;;1.60;1.60;;;;;;;;;;4993504;28;20224;-57
2022/08/11 02:52:22;;;;;;;1.40;1.40;;;;;;;;;;5005739;28;20239;-57
2022/08/11 02:54:57;;;;;;;1.30;1.30;;;;;;;;;;4984669;28;20316;-58
2022/08/11 02:57:42;;;;;;;1.50;1.50;;;;;;;;;;5000880;28;20220;-57
2022/08/11 03:00:09;;;;;;;1.43;1.43;;;;;;;;;;5002944;28;20225;-58
2022/08/11 03:02:53;;;;;;;1.53;1.53;;;;;;;;;;4985848;28;20248;-58
2022/08/11 03:05:38;;;;;;;1.20;1.20;;;;;;;;;;4975753;28;20248;-58
2022/08/11 03:08:17;;;;;;;1.40;1.40;;;;;;;;;;4998107;28;20700;-58
2022/08/11 03:16:44;;;;;;;1.80;1.70;;;;;;;;;;5009676;28;20291;-58
2022/08/11 03:19:22;;;;;;;1.80;1.70;;;;;;;;;;4992143;28;20231;-57
2022/08/11 03:21:55;;;;;;;1.50;1.50;;;;;;;;;;5016882;28;20311;-58
2022/08/11 03:24:42;;;;;;;1.50;1.50;;;;;;;;;;5002999;28;20234;-59
2022/08/11 03:27:12;;;;;;;1.60;1.60;;;;;;;;;;4980047;28;20232;-57
2022/08/11 03:29:47;;;;;;;1.60;1.60;;;;;;;;;;4985008;28;20236;-58
2022/08/11 03:32:32;;;;;;;1.60;1.60;;;;;;;;;;5019326;28;20707;-58
2022/08/11 03:35:00;;;;;;;1.50;1.50;;;;;;;;;;5007141;28;20223;-59
2022/08/11 03:37:49;;;;;;;1.70;1.70;;;;;;;;;;5007839;28;20224;-58
2022/08/11 03:41:41;;;;;;;1.90;1.80;;;;;;;;;;5007190;28;20928;-57
2022/08/11 03:43:24;;;;;;;1.50;1.50;;;;;;;;;;5015039;28;20220;-57
2022/08/11 03:45:56;;;;;;;1.60;1.60;;;;;;;;;;5016625;28;20609;-58
2022/08/11 03:48:27;;;;;;;1.90;1.80;;;;;;;;;;5003891;28;20256;-57
2022/08/11 03:50:56;;;;;;;2.00;1.90;;;;;;;;;;4993246;28;20233;-59
2022/08/11 03:53:35;;;;;;;1.60;1.60;;;;;;;;;;5012797;28;20274;-59
2022/08/11 03:56:20;;;;;;;2.30;2.20;;;;;;;;;;5011874;28;20367;-58
2022/08/11 03:59:05;;;;;;;2.80;2.70;;;;;;;;;;5005056;28;20669;-57
2022/08/11 04:01:34;;;;;;;2.53;2.43;;;;;;;;;;4999042;28;20251;-57
2022/08/11 04:04:19;;;;;;;1.40;1.40;;;;;;;;;;5000565;28;20225;-59
2022/08/11 04:06:54;;;;;;;2.23;2.13;;;;;;;;;;4993157;28;20776;-58
2022/08/11 04:09:38;;;;;;;2.60;2.50;;;;;;;;;;4986534;28;20240;-58
2022/08/11 04:12:27;;;;;;;2.20;2.10;;;;;;;;;;5004579;28;20224;-57
2022/08/11 04:18:16;;;;;;;1.90;1.80;;;;;;;;;;4989762;28;20360;-58
2022/08/11 04:20:53;;;;;;;1.60;1.60;;;;;;;;;;4992328;28;20342;-59
2022/08/11 04:23:25;;;;;;;1.83;1.73;;;;;;;;;;4966861;28;21148;-62
2022/08/11 04:26:00;;;;;;;1.67;1.67;;;;;;;;;;5000151;28;20247;-59
2022/08/11 04:28:49;;;;;;;1.53;1.53;;;;;;;;;;4989840;28;20233;-60
2022/08/11 04:31:15;;;;;;;1.30;1.30;;;;;;;;;;4993486;28;20236;-60
2022/08/11 04:33:58;;;;;;;2.10;2.00;;;;;;;;;;4991696;28;20354;-59
2022/08/11 04:37:31;;;;;;;2.40;2.30;;;;;;;;;;4982102;28;20231;-60
2022/08/11 04:39:25;;;;;;;1.80;1.70;;;;;;;;;;5007176;28;20243;-60
2022/08/11 04:44:42;;;;;;;2.10;2.00;;;;;;;;;;5003834;28;20243;-60
2022/08/11 05:01:39;;;;;;;2.17;2.07;;;;;;;;;;4997676;28;20289;-60
2022/08/11 05:01:41;;;;;;;1.10;1.10;;;;;;;;;;5014934;28;20289;-61
2022/08/11 05:07:21;;;;;;;1.70;1.70;;;;;;;;;;4946023;28;20231;-60
2022/08/11 05:09:56;;;;;;;1.20;1.20;;;;;;;;;;5005641;28;20245;-59
2022/08/11 05:12:29;;;;;;;1.63;1.63;;;;;;;;;;4986454;28;20230;-59
2022/08/11 05:34:53;;;;;;;0.90;0.90;;;;;;;;;;5020564;28;20220;-61
2022/08/11 05:37:28;;;;;;;1.50;1.50;;;;;;;;;;5001146;28;20421;-58
2022/08/11 05:56:40;;;;;;;0.80;0.80;;;;;;;;;;5010751;28;20309;-59
2022/08/11 05:59:06;;;;;;;0.80;0.80;;;;;;;;;;5002319;28;20262;-58
2022/08/11 06:01:32;;;;;;;0.90;0.90;;;;;;;;;;5008371;28;20300;-58
2022/08/11 06:04:14;;;;;;;0.70;0.70;;;;;;;;;;5020620;28;20435;-58
2022/08/11 06:06:45;;;;;;;0.80;0.80;;;;;;;;;;5010668;28;20720;-57
2022/08/11 06:09:13;;;;;;;0.70;0.70;;;;;;;;;;5025539;28;20717;-58
2022/08/11 06:11:39;;;;;;;0.70;0.70;;;;;;;;;;5028008;28;20224;-59
2022/08/11 06:14:05;;;;;;;0.70;0.70;;;;;;;;;;5019844;28;20227;-58
2022/08/11 06:16:31;;;;;;;0.80;0.80;;;;;;;;;;5007071;28;20394;-58
2022/08/11 06:18:57;;;;;;;0.80;0.80;;;;;;;;;;5023456;28;20197;-58
2022/08/11 06:21:23;;;;;;;0.80;0.80;;;;;;;;;;5008427;28;20211;-59
2022/08/11 06:23:49;;;;;;;0.77;0.77;;;;;;;;;;5027390;28;20814;-57
2022/08/11 06:26:15;;;;;;;0.80;0.80;;;;;;;;;;5014384;28;20943;-57
2022/08/11 06:28:43;;;;;;;0.70;0.70;;;;;;;;;;5024429;28;20743;-57
2022/08/11 06:31:13;;;;;;;0.60;0.60;;;;;;;;;;5005310;28;20663;-57
2022/08/11 06:33:55;;;;;;;0.70;0.70;;;;;;;;;;5025477;28;20298;-57
2022/08/11 06:36:27;;;;;;;0.70;0.70;;;;;;;;;;5028331;28;20224;-58
2022/08/11 06:38:57;;;;;;;0.70;0.70;;;;;;;;;;5029866;28;20228;-59
2022/08/11 06:41:30;;;;;;;0.83;0.83;;;;;;;;;;5014903;28;20209;-57
2022/08/11 06:44:00;;;;;;;0.70;0.70;;;;;;;;;;5021292;28;20242;-58
2022/08/11 06:46:28;;;;;;;0.70;0.70;;;;;;;;;;5024117;28;20199;-58
2022/08/11 06:48:55;;;;;;;0.70;0.70;;;;;;;;;;5020665;28;20526;-59
2022/08/11 06:51:20;;;;;;;1.50;1.50;;;;;;;;;;5025932;28;20240;-58
2022/08/11 06:53:48;;;;;;;1.53;1.53;;;;;;;;;;4999660;28;20228;-57
2022/08/11 07:01:53;;;;;;;1.30;1.30;;;;;;;;;;5014362;28;20251;-57
2022/08/11 07:04:32;;;;;;;1.40;1.40;;;;;;;;;;5014868;28;20216;-58
2022/08/11 07:15:42;;;;;;;1.60;1.60;;;;;;;;;;5008647;28;20242;-58
2022/08/11 07:29:13;;;;;;;1.50;1.50;;;;;;;;;;5017973;28;20336;-57
2022/08/11 07:31:41;;;;;;;1.60;1.60;;;;;;;;;;4994030;28;20236;-58
2022/08/11 07:34:11;;;;;;;1.55;1.55;;;;;;;;;;5002694;28;20593;-57
2022/08/11 07:36:41;;;;;;;1.63;1.63;;;;;;;;;;5017191;28;20638;-58
2022/08/11 07:39:14;;;;;;;1.70;1.60;;;;;;;;;;5018783;28;20668;-59
2022/08/11 07:41:39;;;;;;;1.33;1.33;;;;;;;;;;5006101;28;20311;-57
2022/08/11 07:44:08;;;;;;;1.17;1.17;;;;;;;;;;5018378;28;20232;-60
2022/08/11 07:52:31;;;;;;;1.27;1.27;;;;;;;;;;5009798;28;20652;-58
2022/08/11 07:55:01;;;;;;;1.30;1.30;;;;;;;;;;5018123;28;20220;-57
2022/08/11 08:19:25;;;;;;;1.60;1.60;;;;;;;;;;5011644;28;20306;-59
2022/08/11 08:21:51;;;;;;;1.50;1.50;;;;;;;;;;5025074;28;20217;-59
2022/08/11 08:24:19;;;;;;;1.80;1.70;;;;;;;;;;5026269;28;20862;-57
2022/08/11 08:26:57;;;;;;;1.20;1.20;;;;;;;;;;5029523;28;20632;-57
2022/08/11 08:32:07;;;;;;;1.20;1.20;;;;;;;;;;5017079;28;20228;-58
2022/08/11 08:34:34;;;;;;;1.30;1.30;;;;;;;;;;5027900;28;20601;-59
2022/08/11 08:37:00;;;;;;;1.35;1.35;;;;;;;;;;5028831;28;20255;-58
2022/08/11 08:39:26;;;;;;;1.60;1.60;;;;;;;;;;5020625;28;20657;-57
2022/08/11 08:41:54;;;;;;;1.60;1.60;;;;;;;;;;5018509;28;20233;-59
2022/08/11 08:44:20;;;;;;;1.50;1.50;;;;;;;;;;5005910;28;20286;-58
2022/08/11 08:46:47;;;;;;;1.73;1.70;;;;;;;;;;5022132;28;20792;-58
2022/08/11 08:49:14;;;;;;;1.50;1.50;;;;;;;;;;5012736;28;20228;-58
2022/08/11 08:51:40;;;;;;;1.20;1.20;;;;;;;;;;5008968;28;20224;-60
2022/08/11 08:54:08;;;;;;;1.45;1.45;;;;;;;;;;5010128;28;20213;-59
2022/08/11 08:56:34;;;;;;;1.15;1.15;;;;;;;;;;5026899;28;20223;-59
2022/08/11 08:59:01;;;;;;;1.20;1.20;;;;;;;;;;5010413;28;20220;-58
2022/08/11 09:01:30;;;;;;;1.55;1.55;;;;;;;;;;5023215;28;20212;-59
2022/08/11 09:03:56;;;;;;;1.67;1.67;;;;;;;;;;5009941;28;20304;-60
2022/08/11 09:06:22;;;;;;;1.50;1.50;;;;;;;;;;5019207;28;20247;-60
2022/08/11 09:08:48;;;;;;;1.40;1.40;;;;;;;;;;5022461;28;20244;-59
2022/08/11 09:13:58;;;;;;;1.25;1.25;;;;;;;;;;5002355;28;20258;-59
2022/08/11 09:16:24;;;;;;;1.40;1.40;;;;;;;;;;5005376;28;20686;-59
2022/08/11 09:18:51;;;;;;;1.02;1.02;;;;;;;;;;5002866;28;20373;-62
2022/08/11 09:21:21;;;;;;;1.10;1.10;;;;;;;;;;4992973;28;20216;-59
2022/08/11 09:29:17;;;;;;;1.20;1.20;;;;;;;;;;5011827;28;20227;-59
2022/08/11 09:31:43;;;;;;;1.00;1.00;;;;;;;;;;5016972;28;20216;-59
2022/08/11 09:34:09;;;;;;;1.10;1.10;;;;;;;;;;5017425;28;20228;-59
2022/08/11 09:42:04;;;;;;;1.00;1.00;;;;;;;;;;5020982;28;20648;-59
2022/08/11 09:44:51;;;;;;;0.95;0.95;;;;;;;;;;5026055;28;20225;-60
2022/08/11 09:47:18;;;;;;;0.82;0.82;;;;;;;;;;5009280;28;20275;-59
2022/08/11 09:49:44;;;;;;;0.80;0.80;;;;;;;;;;5014034;28;20262;-60
2022/08/11 09:52:12;;;;;;;1.00;1.00;;;;;;;;;;5020674;28;20222;-59
2022/08/11 09:54:38;;;;;;;1.10;1.10;;;;;;;;;;5010741;28;20298;-59
2022/08/11 09:59:49;;;;;;;1.00;1.00;;;;;;;;;;5023939;28;20323;-59
2022/08/11 10:02:15;;;;;;;1.10;1.10;;;;;;;;;;5003615;28;20207;-61
2022/08/11 10:04:44;;;;;;;1.10;1.10;;;;;;;;;;5005680;28;20583;-60
2022/08/11 10:07:13;;;;;;;1.17;1.17;;;;;;;;;;5010859;28;20237;-58
2022/08/11 10:09:52;;;;;;;1.15;1.15;;;;;;;;;;4990351;28;20266;-63
2022/08/11 10:12:25;;;;;;;1.10;1.10;;;;;;;;;;4998748;28;20221;-60
2022/08/11 10:15:32;;;;;;;1.20;1.20;;;;;;;;;;5020778;28;20269;-59
2022/08/11 10:20:44;;;;;;;1.10;1.10;;;;;;;;;;5008390;28;20278;-59
2022/08/11 10:28:40;;;;;;;1.05;1.05;;;;;;;;;;5009116;28;20660;-59
2022/08/11 10:33:59;;;;;;;1.20;1.20;;;;;;;;;;5023941;28;20234;-60
2022/08/11 10:36:29;;;;;;;1.20;1.20;;;;;;;;;;5022607;28;20292;-60
2022/08/11 10:38:55;;;;;;;1.20;1.20;;;;;;;;;;5023425;28;20710;-59
2022/08/11 10:44:06;;;;;;;1.10;1.10;;;;;;;;;;5002503;28;20226;-62
2022/08/11 10:49:16;;;;;;;1.20;1.20;;;;;;;;;;5010707;28;20216;-62
2022/08/11 10:59:56;;;;;;;1.17;1.17;;;;;;;;;;5001463;28;20230;-61
2022/08/11 11:02:22;;;;;;;1.10;1.10;;;;;;;;;;5003704;28;20233;-60
2022/08/11 11:05:02;;;;;;;1.20;1.20;;;;;;;;;;5024250;28;20229;-60
2022/08/11 11:07:38;;;;;;;1.25;1.25;;;;;;;;;;4988520;28;20251;-61
2022/08/11 11:10:05;;;;;;;1.20;1.20;;;;;;;;;;5016383;28;20235;-63
2022/08/11 11:18:08;;;;;;;1.23;1.23;;;;;;;;;;5028562;28;20236;-61
2022/08/11 11:20:41;;;;;;;1.40;1.40;;;;;;;;;;4990358;28;20235;-61
2022/08/11 11:23:18;;;;;;;1.10;1.10;;;;;;;;;;5006434;28;20311;-60
2022/08/11 11:26:05;;;;;;;1.10;1.10;;;;;;;;;;5010763;28;20240;-58
2022/08/11 11:28:30;;;;;;;1.13;1.13;;;;;;;;;;5014462;28;20227;-61
2022/08/11 11:31:06;;;;;;;1.10;1.10;;;;;;;;;;5016312;28;20309;-60
2022/08/11 11:33:32;;;;;;;1.10;1.10;;;;;;;;;;5012439;28;20273;-61
2022/08/11 11:36:06;;;;;;;1.08;1.08;;;;;;;;;;5011329;28;20685;-61
2022/08/11 11:38:32;;;;;;;1.20;1.20;;;;;;;;;;4991130;28;20203;-64
2022/08/11 11:43:44;;;;;;;1.15;1.15;;;;;;;;;;5022110;28;20298;-63
2022/08/11 11:46:10;;;;;;;1.10;1.10;;;;;;;;;;5013093;28;20230;-62
2022/08/11 11:48:36;;;;;;;1.10;1.10;;;;;;;;;;5019186;28;20590;-63
2022/08/11 11:51:02;;;;;;;1.20;1.20;;;;;;;;;;5019658;28;20592;-61
2022/08/11 11:53:28;;;;;;;1.10;1.10;;;;;;;;;;5020228;28;20262;-61
2022/08/11 11:55:54;;;;;;;1.40;1.40;;;;;;;;;;5019171;28;20208;-61
2022/08/11 12:01:18;;;;;;;1.20;1.20;;;;;;;;;;5003577;28;20615;-62
2022/08/11 12:03:45;;;;;;;1.20;1.20;;;;;;;;;;5017072;28;20194;-62
2022/08/11 12:06:12;;;;;;;1.30;1.30;;;;;;;;;;5005743;28;20217;-61
2022/08/11 12:08:38;;;;;;;1.13;1.13;;;;;;;;;;5023229;28;20226;-62
2022/08/11 12:14:04;;;;;;;1.30;1.30;;;;;;;;;;4950537;28;20289;-59
2022/08/11 12:16:30;;;;;;;1.40;1.40;;;;;;;;;;5025489;28;20216;-62
2022/08/11 12:18:59;;;;;;;1.35;1.35;;;;;;;;;;5019743;28;20192;-61
2022/08/11 12:21:25;;;;;;;1.30;1.30;;;;;;;;;;5020428;28;20232;-62
2022/08/11 12:29:15;;;;;;;1.45;1.45;;;;;;;;;;5007485;28;20199;-62
2022/08/11 12:31:41;;;;;;;1.25;1.25;;;;;;;;;;5003140;28;20708;-61
2022/08/11 12:34:08;;;;;;;1.20;1.20;;;;;;;;;;5004440;28;20215;-62
2022/08/11 12:36:41;;;;;;;1.30;1.30;;;;;;;;;;5007736;28;21788;-62
2022/08/11 12:39:07;;;;;;;1.20;1.20;;;;;;;;;;5019832;28;20220;-61
2022/08/11 12:47:03;;;;;;;1.35;1.35;;;;;;;;;;5003006;28;20587;-62
2022/08/11 12:52:18;;;;;;;1.20;1.20;;;;;;;;;;5007608;28;20208;-60
2022/08/11 12:54:50;;;;;;;1.30;1.30;;;;;;;;;;4998925;28;20200;-61
2022/08/11 13:05:32;;;;;;;1.25;1.25;;;;;;;;;;5005607;28;20294;-62
2022/08/11 13:07:58;;;;;;;1.20;1.20;;;;;;;;;;4998435;28;20230;-64
2022/08/11 13:13:08;;;;;;;1.50;1.50;;;;;;;;;;5019417;28;20255;-62
2022/08/11 13:15:37;;;;;;;1.42;1.42;;;;;;;;;;5002862;28;20200;-61
2022/08/11 13:18:03;;;;;;;1.50;1.50;;;;;;;;;;4971914;28;20232;-61
2022/08/11 13:20:29;;;;;;;1.42;1.42;;;;;;;;;;5011554;28;20219;-62
2022/08/11 13:22:55;;;;;;;1.50;1.50;;;;;;;;;;5006172;28;20220;-61
2022/08/11 13:25:22;;;;;;;1.80;1.70;;;;;;;;;;4983385;28;20240;-61
2022/08/11 13:27:48;;;;;;;1.73;1.70;;;;;;;;;;4986565;28;20320;-62
2022/08/11 13:32:59;;;;;;;1.35;1.35;;;;;;;;;;4981867;28;20238;-61
2022/08/11 13:35:26;;;;;;;1.40;1.40;;;;;;;;;;4991720;28;20774;-62
2022/08/11 13:37:52;;;;;;;1.40;1.40;;;;;;;;;;4999640;28;20206;-61
2022/08/11 13:40:18;;;;;;;1.45;1.45;;;;;;;;;;5013421;28;20286;-60
2022/08/11 13:42:44;;;;;;;1.20;1.20;;;;;;;;;;4983700;28;20834;-61
2022/08/11 13:45:10;;;;;;;1.38;1.38;;;;;;;;;;4998392;28;20220;-62
2022/08/11 13:47:36;;;;;;;1.33;1.33;;;;;;;;;;5012227;28;20790;-61
2022/08/11 13:50:03;;;;;;;1.48;1.48;;;;;;;;;;5012425;28;20236;-61
2022/08/11 13:52:29;;;;;;;1.30;1.30;;;;;;;;;;5014298;28;20219;-61
2022/08/11 13:54:55;;;;;;;1.40;1.40;;;;;;;;;;5004833;28;21023;-62
2022/08/11 13:57:21;;;;;;;1.35;1.35;;;;;;;;;;5011692;28;20208;-61
2022/08/11 13:59:47;;;;;;;1.30;1.30;;;;;;;;;;5006658;28;20224;-61
2022/08/11 14:02:14;;;;;;;1.40;1.40;;;;;;;;;;4996169;28;20219;-61
2022/08/11 14:05:00;;;;;;;1.52;1.52;;;;;;;;;;5009242;28;20978;-62
2022/08/11 14:07:27;;;;;;;1.50;1.50;;;;;;;;;;5015658;28;20227;-60
2022/08/11 14:09:56;;;;;;;1.70;1.60;;;;;;;;;;5007141;28;21030;-61
2022/08/11 14:15:18;;;;;;;1.40;1.40;;;;;;;;;;5015916;28;20247;-62
2022/08/11 14:17:44;;;;;;;1.30;1.30;;;;;;;;;;5002091;28;20221;-61
2022/08/11 14:20:10;;;;;;;1.33;1.33;;;;;;;;;;4980161;28;20224;-61
2022/08/11 14:22:36;;;;;;;1.30;1.30;;;;;;;;;;4998566;28;20728;-62
2022/08/11 14:25:03;;;;;;;1.30;1.30;;;;;;;;;;5005277;28;20235;-61
2022/08/11 14:27:29;;;;;;;1.50;1.50;;;;;;;;;;4997812;28;20211;-61
2022/08/11 14:29:55;;;;;;;1.45;1.45;;;;;;;;;;5016800;28;20230;-61
2022/08/11 14:32:21;;;;;;;1.40;1.40;;;;;;;;;;5004586;28;20607;-62
2022/08/11 14:34:47;;;;;;;1.50;1.50;;;;;;;;;;5008654;28;20216;-62
2022/08/11 14:37:21;;;;;;;1.60;1.60;;;;;;;;;;4988388;28;20251;-62
2022/08/11 14:39:47;;;;;;;1.60;1.60;;;;;;;;;;5007673;28;20235;-62
2022/08/11 14:47:47;;;;;;;1.48;1.48;;;;;;;;;;5003202;28;20235;-62
2022/08/11 14:50:14;;;;;;;1.50;1.50;;;;;;;;;;4975744;28;20255;-61
2022/08/11 14:52:43;;;;;;;1.50;1.50;;;;;;;;;;5001265;28;20227;-62
2022/08/11 14:57:54;;;;;;;1.55;1.55;;;;;;;;;;5008034;28;20661;-60
2022/08/11 15:00:20;;;;;;;1.40;1.40;;;;;;;;;;5013533;28;20831;-61
2022/08/11 15:03:08;;;;;;;1.52;1.52;;;;;;;;;;5010946;28;20225;-61
2022/08/11 15:05:35;;;;;;;1.42;1.42;;;;;;;;;;5011643;28;20731;-60
2022/08/11 15:08:01;;;;;;;1.52;1.52;;;;;;;;;;5018877;28;20966;-61
2022/08/11 15:10:27;;;;;;;1.50;1.50;;;;;;;;;;4998917;28;20232;-61
2022/08/11 15:12:53;;;;;;;1.40;1.40;;;;;;;;;;5011839;28;20219;-62
2022/08/11 15:18:05;;;;;;;1.50;1.50;;;;;;;;;;5017019;28;20218;-62
2022/08/11 15:26:11;;;;;;;1.52;1.52;;;;;;;;;;4983297;28;20243;-62
2022/08/11 15:37:26;;;;;;;1.58;1.58;;;;;;;;;;4930258;28;20237;-62
2022/08/11 15:45:49;;;;;;;1.40;1.40;;;;;;;;;;4986113;28;20283;-62
2022/08/11 15:48:34;;;;;;;1.40;1.40;;;;;;;;;;4997334;28;20306;-62
2022/08/11 15:51:03;;;;;;;1.60;1.60;;;;;;;;;;4983602;28;20726;-62
2022/08/11 15:53:33;;;;;;;1.60;1.60;;;;;;;;;;4998799;28;20327;-61
2022/08/11 15:55:59;;;;;;;1.50;1.50;;;;;;;;;;4988500;28;20224;-62
2022/08/11 16:04:11;;;;;;;1.50;1.50;;;;;;;;;;5000928;28;20231;-62
2022/08/11 16:06:49;;;;;;;1.50;1.50;;;;;;;;;;4990493;28;20299;-62
2022/08/11 16:09:17;;;;;;;1.42;1.42;;;;;;;;;;5004905;28;20705;-62
2022/08/11 16:11:43;;;;;;;1.50;1.50;;;;;;;;;;4977639;28;20785;-62
2022/08/11 16:16:54;;;;;;;1.60;1.60;;;;;;;;;;4971665;28;20267;-62
2022/08/11 16:19:20;;;;;;;1.50;1.50;;;;;;;;;;4985410;28;20224;-62
2022/08/11 16:21:49;;;;;;;1.73;1.65;;;;;;;;;;5006486;28;20224;-63
2022/08/11 16:24:15;;;;;;;1.40;1.40;;;;;;;;;;4999759;28;21302;-62
2022/08/11 16:26:42;;;;;;;1.50;1.50;;;;;;;;;;4988763;28;20267;-61
2022/08/11 16:29:08;;;;;;;1.50;1.50;;;;;;;;;;4998301;28;20247;-61
2022/08/11 16:31:34;;;;;;;1.45;1.45;;;;;;;;;;4995091;28;20319;-61
2022/08/11 16:34:00;;;;;;;1.50;1.50;;;;;;;;;;4999451;28;20221;-62
2022/08/11 16:39:11;;;;;;;1.50;1.50;;;;;;;;;;4996810;28;20225;-61
2022/08/11 16:47:08;;;;;;;1.60;1.60;;;;;;;;;;4988867;28;20236;-62
2022/08/11 16:49:36;;;;;;;1.60;1.60;;;;;;;;;;5000124;28;20340;-61
2022/08/11 16:52:03;;;;;;;1.58;1.58;;;;;;;;;;4996335;28;20221;-61
2022/08/11 16:54:35;;;;;;;1.50;1.50;;;;;;;;;;5007127;28;20217;-61
2022/08/11 16:59:13;;;;;;;1.60;1.60;;;;;;;;;;5001694;28;20229;-61
2022/08/11 16:59:49;;;;;;;1.60;1.60;;;;;;;;;;4986359;28;20303;-62
2022/08/11 17:13:47;;;;;;;1.50;1.50;;;;;;;;;;4979005;28;20719;-62
2022/08/11 17:16:14;;;;;;;1.58;1.58;;;;;;;;;;4981673;28;21490;-62
2022/08/11 17:18:40;;;;;;;1.40;1.40;;;;;;;;;;4983103;28;20253;-60
2022/08/11 17:21:07;;;;;;;1.40;1.40;;;;;;;;;;4995244;28;20221;-61
2022/08/11 17:23:45;;;;;;;1.50;1.50;;;;;;;;;;4988443;28;20716;-61
2022/08/11 17:26:12;;;;;;;1.60;1.60;;;;;;;;;;4989805;28;20712;-62
2022/08/11 17:28:39;;;;;;;1.40;1.40;;;;;;;;;;5005090;28;20677;-62
2022/08/11 17:36:52;;;;;;;1.50;1.50;;;;;;;;;;4953558;28;20734;-61
2022/08/11 17:39:18;;;;;;;1.50;1.50;;;;;;;;;;4960508;28;20256;-61
2022/08/11 17:49:58;;;;;;;1.63;1.63;;;;;;;;;;4989731;28;20278;-61
2022/08/11 18:00:37;;;;;;;1.63;1.63;;;;;;;;;;4993222;28;20260;-61
2022/08/11 18:05:48;;;;;;;1.40;1.40;;;;;;;;;;5003360;28;20851;-61
